sensor_id;sensor_type;location;lat;lon;timestamp;pressure;altitude;pressure_sealevel;temperature;humidity
41684;BME280;27369;52.030;4.586;2023-06-04T00:00:44;102382.06;;;-144.41;100.00
41684;BME280;27369;52.030;4.586;2023-06-04T00:03:10;102299.88;;;-144.41;100.00
41684;BME280;27369;52.030;4.586;2023-06-04T00:05:35;102237.72;;;-144.41;100.00
41684;BME280;27369;52.030;4.586;2023-06-04T00:08:01;103386.53;;;-144.41;100.00
41684;BME280;27369;52.030;4.586;2023-06-04T00:10:26;102869.22;;;-144.41;100.00
41684;BME280;27369;52.030;4.586;2023-06-04T00:12:52;103546.97;;;-144.41;100.00
41684;BME280;27369;52.030;4.586;2023-06-04T00:15:17;103494.81;;;-144.41;100.00
41684;BME280;27369;52.030;4.586;2023-06-04T00:17:43;103923.97;;;-144.41;100.00
41684;BME280;27369;52.030;4.586;2023-06-04T00:20:09;104130.53;;;-144.41;100.00
41684;BME280;27369;52.030;4.586;2023-06-04T00:22:34;104355.16;;;-144.41;100.00
41684;BME280;27369;52.030;4.586;2023-06-04T00:25:00;104816.50;;;-144.41;100.00
41684;BME280;27369;52.030;4.586;2023-06-04T00:27:25;105011.06;;;-144.41;100.00
41684;BME280;27369;52.030;4.586;2023-06-04T00:29:51;105227.72;;;-144.41;100.00
41684;BME280;27369;52.030;4.586;2023-06-04T00:32:16;105450.41;;;-144.41;100.00
41684;BME280;27369;52.030;4.586;2023-06-04T00:34:42;106224.88;;;-144.41;100.00
41684;BME280;27369;52.030;4.586;2023-06-04T00:37:07;106576.03;;;-144.41;100.00
41684;BME280;27369;52.030;4.586;2023-06-04T00:39:32;107234.31;;;-144.41;100.00
41684;BME280;27369;52.030;4.586;2023-06-04T00:41:59;107240.34;;;-144.41;100.00
41684;BME280;27369;52.030;4.586;2023-06-04T00:44:25;107449.06;;;-144.41;100.00
41684;BME280;27369;52.030;4.586;2023-06-04T00:46:51;107661.84;;;-144.41;100.00
41684;BME280;27369;52.030;4.586;2023-06-04T00:49:18;107828.44;;;-144.41;100.00
41684;BME280;27369;52.030;4.586;2023-06-04T00:51:44;107631.72;;;-144.41;100.00
41684;BME280;27369;52.030;4.586;2023-06-04T00:54:10;107605.63;;;-144.41;100.00
41684;BME280;27369;52.030;4.586;2023-06-04T00:56:37;107565.50;;;-144.41;100.00
41684;BME280;27369;52.030;4.586;2023-06-04T00:59:07;107605.63;;;-144.41;100.00
41684;BME280;27369;52.030;4.586;2023-06-04T01:01:43;107340.69;;;-144.41;100.00
41684;BME280;27369;52.030;4.586;2023-06-04T01:04:16;107433.03;;;-144.41;100.00
41684;BME280;27369;52.030;4.586;2023-06-04T01:06:44;107531.38;;;-144.41;100.00
41684;BME280;27369;52.030;4.586;2023-06-04T01:09:10;107248.38;;;-144.41;100.00
41684;BME280;27369;52.030;4.586;2023-06-04T01:11:39;106965.38;;;-144.41;100.00
41684;BME280;27369;52.030;4.586;2023-06-04T01:14:07;106877.06;;;-144.41;100.00
41684;BME280;27369;52.030;4.586;2023-06-04T01:16:47;106678.38;;;-144.41;100.00
41684;BME280;27369;52.030;4.586;2023-06-04T01:24:59;104993.00;;;-144.41;100.00
41684;BME280;27369;52.030;4.586;2023-06-04T01:27:28;105001.03;;;-144.41;100.00
41684;BME280;27369;52.030;4.586;2023-06-04T01:29:55;103925.97;;;-144.41;100.00
41684;BME280;27369;52.030;4.586;2023-06-04T01:32:23;101592.28;;;-144.41;100.00
41684;BME280;27369;52.030;4.586;2023-06-04T01:34:48;99392.16;;;-144.41;100.00
41684;BME280;27369;52.030;4.586;2023-06-04T01:37:14;97729.84;;;-144.41;100.00
41684;BME280;27369;52.030;4.586;2023-06-04T01:39:41;94495.28;;;-144.41;100.00
41684;BME280;27369;52.030;4.586;2023-06-04T01:42:08;91979.06;;;-144.41;100.00
41684;BME280;27369;52.030;4.586;2023-06-04T01:44:33;89420.44;;;-144.41;100.00
41684;BME280;27369;52.030;4.586;2023-06-04T01:46:59;86096.69;;;-144.41;100.00
41684;BME280;27369;52.030;4.586;2023-06-04T01:49:24;82264.97;;;-144.41;100.00
41684;BME280;27369;52.030;4.586;2023-06-04T01:51:50;79202.25;;;-144.41;100.00
41684;BME280;27369;52.030;4.586;2023-06-04T01:54:15;76651.75;;;-144.41;100.00
41684;BME280;27369;52.030;4.586;2023-06-04T01:56:41;76651.75;;;-144.41;100.00
41684;BME280;27369;52.030;4.586;2023-06-04T01:59:07;75122.25;;;-144.41;100.00
41684;BME280;27369;52.030;4.586;2023-06-04T02:01:33;75377.13;;;-144.41;100.00
41684;BME280;27369;52.030;4.586;2023-06-04T02:03:59;74612.53;;;-144.41;100.00
41684;BME280;27369;52.030;4.586;2023-06-04T02:06:25;74867.38;;;-144.41;100.00
41684;BME280;27369;52.030;4.586;2023-06-04T02:08:55;77926.81;;;-144.41;100.00
41684;BME280;27369;52.030;4.586;2023-06-04T02:11:21;78181.84;;;-144.41;100.00
41684;BME280;27369;52.030;4.586;2023-06-04T02:13:47;77671.75;;;-144.41;100.00
41684;BME280;27369;52.030;4.586;2023-06-04T02:16:13;77926.81;;;-144.41;100.00
41684;BME280;27369;52.030;4.586;2023-06-04T02:18:38;78947.13;;;-144.41;100.00
41684;BME280;27369;52.030;4.586;2023-06-04T02:21:04;79712.53;;;-144.41;100.00
41684;BME280;27369;52.030;4.586;2023-06-04T02:23:29;79967.72;;;-144.41;100.00
41684;BME280;27369;52.030;4.586;2023-06-04T02:25:55;81754.38;;;-144.41;100.00
41684;BME280;27369;52.030;4.586;2023-06-04T02:28:20;83797.22;;;-144.41;100.00
41684;BME280;27369;52.030;4.586;2023-06-04T02:30:46;85841.13;;;-144.41;100.00
41684;BME280;27369;52.030;4.586;2023-06-04T02:33:12;87374.72;;;-144.41;100.00
41684;BME280;27369;52.030;4.586;2023-06-04T02:35:38;88908.94;;;-144.41;100.00
41684;BME280;27369;52.030;4.586;2023-06-04T02:38:03;91211.31;;;-144.41;100.00
41684;BME280;27369;52.030;4.586;2023-06-04T02:40:29;92758.97;;;-144.41;100.00
41684;BME280;27369;52.030;4.586;2023-06-04T02:42:55;94699.34;;;-144.41;100.00
41684;BME280;27369;52.030;4.586;2023-06-04T02:45:22;97862.00;;;-144.41;100.00
41684;BME280;27369;52.030;4.586;2023-06-04T02:47:48;99588.50;;;-144.41;100.00
41684;BME280;27369;52.030;4.586;2023-06-04T02:50:14;101359.81;;;-144.41;100.00
41684;BME280;27369;52.030;4.586;2023-06-04T02:52:40;102041.28;;;-144.41;100.00
41684;BME280;27369;52.030;4.586;2023-06-04T02:55:07;103739.47;;;-144.41;100.00
41684;BME280;27369;52.030;4.586;2023-06-04T02:57:34;105023.09;;;-144.41;100.00
41684;BME280;27369;52.030;4.586;2023-06-04T03:00:00;105927.91;;;-144.41;100.00
41684;BME280;27369;52.030;4.586;2023-06-04T03:02:26;106361.31;;;-144.41;100.00
41684;BME280;27369;52.030;4.586;2023-06-04T03:04:52;106979.41;;;-144.41;100.00
41684;BME280;27369;52.030;4.586;2023-06-04T03:07:20;107370.78;;;-144.41;100.00
41684;BME280;27369;52.030;4.586;2023-06-04T03:09:51;107750.16;;;-144.41;100.00
41684;BME280;27369;52.030;4.586;2023-06-04T03:12:16;108181.78;;;-144.41;100.00
41684;BME280;27369;52.030;4.586;2023-06-04T03:14:41;108260.06;;;-144.41;100.00
41684;BME280;27369;52.030;4.586;2023-06-04T03:17:07;108456.81;;;-144.41;100.00
41684;BME280;27369;52.030;4.586;2023-06-04T03:19:39;108388.56;;;-144.41;100.00
41684;BME280;27369;52.030;4.586;2023-06-04T03:22:06;108388.56;;;-144.41;100.00
41684;BME280;27369;52.030;4.586;2023-06-04T03:24:36;108388.56;;;-144.41;100.00
41684;BME280;27369;52.030;4.586;2023-06-04T03:27:03;108388.56;;;-144.41;100.00
41684;BME280;27369;52.030;4.586;2023-06-04T03:29:29;108388.56;;;-144.41;100.00
41684;BME280;27369;52.030;4.586;2023-06-04T03:31:56;108388.56;;;-144.41;100.00
41684;BME280;27369;52.030;4.586;2023-06-04T03:34:21;108131.56;;;-144.41;100.00
41684;BME280;27369;52.030;4.586;2023-06-04T03:36:51;108131.56;;;-144.41;100.00
41684;BME280;27369;52.030;4.586;2023-06-04T03:39:16;108131.56;;;-144.41;100.00
41684;BME280;27369;52.030;4.586;2023-06-04T03:41:43;108131.56;;;-144.41;100.00
41684;BME280;27369;52.030;4.586;2023-06-04T03:44:08;108131.56;;;-144.41;100.00
41684;BME280;27369;52.030;4.586;2023-06-04T03:46:34;107874.63;;;-144.41;100.00
41684;BME280;27369;52.030;4.586;2023-06-04T03:49:00;107874.63;;;-144.41;100.00
41684;BME280;27369;52.030;4.586;2023-06-04T03:51:26;107617.69;;;-144.41;100.00
41684;BME280;27369;52.030;4.586;2023-06-04T03:53:51;107617.69;;;-144.41;100.00
41684;BME280;27369;52.030;4.586;2023-06-04T03:56:17;107360.75;;;-144.41;100.00
41684;BME280;27369;52.030;4.586;2023-06-04T03:58:43;107103.84;;;-144.41;100.00
41684;BME280;27369;52.030;4.586;2023-06-04T04:01:08;106846.97;;;-144.41;100.00
41684;BME280;27369;52.030;4.586;2023-06-04T04:03:36;106076.38;;;-144.41;100.00
41684;BME280;27369;52.030;4.586;2023-06-04T04:06:02;105562.75;;;-144.41;100.00
41684;BME280;27369;52.030;4.586;2023-06-04T04:08:28;105049.19;;;-144.41;100.00
41684;BME280;27369;52.030;4.586;2023-06-04T04:11:00;104022.22;;;-144.41;100.00
41684;BME280;27369;52.030;4.586;2023-06-04T04:13:26;66974.69;;;-144.41;100.00
41684;BME280;27369;52.030;4.586;2023-06-04T04:15:51;36064.53;;;-144.41;100.00
41684;BME280;27369;52.030;4.586;2023-06-04T04:18:20;19192.03;;;-144.41;100.00
41684;BME280;27369;52.030;4.586;2023-06-04T04:20:46;7149.03;;;-144.41;100.00
41684;BME280;27369;52.030;4.586;2023-06-04T04:23:12;5646.28;;;-144.41;100.00
41684;BME280;27369;52.030;4.586;2023-06-04T04:25:38;2392.34;;;-144.41;100.00
41684;BME280;27369;52.030;4.586;2023-06-04T04:28:04;391.28;;;-144.41;100.00
41684;BME280;27369;52.030;4.586;2023-06-04T04:30:36;-1358.78;;;-144.41;100.00
41684;BME280;27369;52.030;4.586;2023-06-04T04:33:02;-2108.59;;;-144.41;100.00
41684;BME280;27369;52.030;4.586;2023-06-04T04:35:30;-2358.47;;;-144.41;100.00
41684;BME280;27369;52.030;4.586;2023-06-04T04:37:58;-2358.47;;;-144.41;100.00
41684;BME280;27369;52.030;4.586;2023-06-04T04:40:23;-3108.06;;;-144.41;100.00
41684;BME280;27369;52.030;4.586;2023-06-04T04:42:49;-4357.06;;;-144.41;100.00
41684;BME280;27369;52.030;4.586;2023-06-04T04:45:14;-5356.00;;;-144.41;100.00
41684;BME280;27369;52.030;4.586;2023-06-04T04:47:39;-6604.25;;;-144.41;100.00
41684;BME280;27369;52.030;4.586;2023-06-04T04:50:05;-7852.13;;;-144.41;100.00
41684;BME280;27369;52.030;4.586;2023-06-04T04:52:31;-13088.72;;;-144.41;100.00
41684;BME280;27369;52.030;4.586;2023-06-04T04:54:56;-16077.84;;;-144.41;100.00
41684;BME280;27369;52.030;4.586;2023-06-04T04:57:23;-16575.81;;;-144.41;100.00
41684;BME280;27369;52.030;4.586;2023-06-04T04:59:49;-16824.78;;;-144.41;100.00
41684;BME280;27369;52.030;4.586;2023-06-04T05:02:15;-16824.78;;;-144.41;100.00
41684;BME280;27369;52.030;4.586;2023-06-04T05:04:40;-16575.81;;;-144.41;100.00
41684;BME280;27369;52.030;4.586;2023-06-04T05:07:06;-16575.81;;;-144.41;100.00
41684;BME280;27369;52.030;4.586;2023-06-04T05:09:31;-16824.78;;;-144.41;100.00
41684;BME280;27369;52.030;4.586;2023-06-04T05:11:57;-16326.84;;;-144.41;100.00
41684;BME280;27369;52.030;4.586;2023-06-04T05:14:23;-15579.84;;;-144.41;100.00
41684;BME280;27369;52.030;4.586;2023-06-04T05:16:48;-15081.75;;;-144.41;100.00
41684;BME280;27369;52.030;4.586;2023-06-04T05:19:16;-15081.75;;;-144.41;100.00
41684;BME280;27369;52.030;4.586;2023-06-04T05:21:42;-14583.59;;;-144.41;100.00
41684;BME280;27369;52.030;4.586;2023-06-04T05:24:08;-14583.59;;;-144.41;100.00
41684;BME280;27369;52.030;4.586;2023-06-04T05:26:34;-14085.38;;;-144.41;100.00
41684;BME280;27369;52.030;4.586;2023-06-04T05:28:59;-13337.91;;;-144.41;100.00
41684;BME280;27369;52.030;4.586;2023-06-04T05:31:26;-12341.06;;;-144.41;100.00
41684;BME280;27369;52.030;4.586;2023-06-04T05:33:51;-11344.00;;;-144.41;100.00
41684;BME280;27369;52.030;4.586;2023-06-04T05:36:17;-11094.69;;;-144.41;100.00
41684;BME280;27369;52.030;4.586;2023-06-04T05:38:43;-9847.88;;;-144.41;100.00
41684;BME280;27369;52.030;4.586;2023-06-04T05:41:08;-9099.59;;;-144.41;100.00
41684;BME280;27369;52.030;4.586;2023-06-04T05:43:34;-7602.59;;;-144.41;100.00
41684;BME280;27369;52.030;4.586;2023-06-04T05:46:00;-6105.00;;;-144.41;100.00
41684;BME280;27369;52.030;4.586;2023-06-04T05:48:25;-3108.06;;;-144.41;100.00
41684;BME280;27369;52.030;4.586;2023-06-04T05:50:51;891.47;;;-144.41;100.00
41684;BME280;27369;52.030;4.586;2023-06-04T05:53:17;2142.16;;;-144.41;100.00
41684;BME280;27369;52.030;4.586;2023-06-04T05:55:42;3393.28;;;-144.41;100.00
41684;BME280;27369;52.030;4.586;2023-06-04T05:58:08;6397.59;;;-144.41;100.00
41684;BME280;27369;52.030;4.586;2023-06-04T06:00:33;8902.97;;;-144.41;100.00
41684;BME280;27369;52.030;4.586;2023-06-04T06:03:00;12162.41;;;-144.41;100.00
41684;BME280;27369;52.030;4.586;2023-06-04T06:05:26;10407.00;;;-144.41;100.00
41684;BME280;27369;52.030;4.586;2023-06-04T06:07:52;12914.97;;;-144.41;100.00
41684;BME280;27369;52.030;4.586;2023-06-04T06:10:17;21251.94;;;-144.41;100.00
41684;BME280;27369;52.030;4.586;2023-06-04T06:12:43;21540.69;;;-144.41;100.00
41684;BME280;27369;52.030;4.586;2023-06-04T06:15:09;26350.41;;;-144.41;100.00
41684;BME280;27369;52.030;4.586;2023-06-04T06:17:35;30534.00;;;-144.41;100.00
41684;BME280;27369;52.030;4.586;2023-06-04T06:20:01;31721.41;;;-144.41;100.00
41684;BME280;27369;52.030;4.586;2023-06-04T06:22:31;33210.59;;;-144.41;100.00
41684;BME280;27369;52.030;4.586;2023-06-04T06:24:57;33923.91;;;-144.41;100.00
41684;BME280;27369;52.030;4.586;2023-06-04T06:27:23;35078.81;;;-144.41;100.00
41684;BME280;27369;52.030;4.586;2023-06-04T06:29:48;35739.22;;;-144.41;100.00
41684;BME280;27369;52.030;4.586;2023-06-04T06:32:13;36711.28;;;-144.41;100.00
41684;BME280;27369;52.030;4.586;2023-06-04T06:34:39;36865.09;;;-144.41;100.00
41684;BME280;27369;52.030;4.586;2023-06-04T06:37:06;36734.94;;;-144.41;100.00
41684;BME280;27369;52.030;4.586;2023-06-04T06:39:31;36691.56;;;-144.41;100.00
41684;BME280;27369;52.030;4.586;2023-06-04T06:41:57;36945.97;;;-144.41;100.00
41684;BME280;27369;52.030;4.586;2023-06-04T06:44:22;37693.47;;;-144.41;100.00
41684;BME280;27369;52.030;4.586;2023-06-04T06:46:48;38239.88;;;-144.41;100.00
41684;BME280;27369;52.030;4.586;2023-06-04T06:49:14;38403.63;;;-144.41;100.00
41684;BME280;27369;52.030;4.586;2023-06-04T06:51:40;38222.13;;;-144.41;100.00
41684;BME280;27369;52.030;4.586;2023-06-04T06:54:05;38589.06;;;-144.41;100.00
41684;BME280;27369;52.030;4.586;2023-06-04T06:56:30;38841.59;;;-144.41;100.00
41684;BME280;27369;52.030;4.586;2023-06-04T06:58:56;39001.44;;;-144.41;100.00
41684;BME280;27369;52.030;4.586;2023-06-04T07:01:21;39269.78;;;-144.41;100.00
41684;BME280;27369;52.030;4.586;2023-06-04T07:03:57;39774.97;;;-144.41;100.00
41684;BME280;27369;52.030;4.586;2023-06-04T07:06:22;40096.66;;;-144.41;100.00
41684;BME280;27369;52.030;4.586;2023-06-04T07:08:48;40301.94;;;-144.41;100.00
41684;BME280;27369;52.030;4.586;2023-06-04T07:11:13;40467.75;;;-144.41;100.00
41684;BME280;27369;52.030;4.586;2023-06-04T07:13:39;41018.47;;;-144.41;100.00
41684;BME280;27369;52.030;4.586;2023-06-04T07:16:05;41519.94;;;-144.41;100.00
41684;BME280;27369;52.030;4.586;2023-06-04T07:18:30;41630.50;;;-144.41;100.00
41684;BME280;27369;52.030;4.586;2023-06-04T07:20:56;41745.03;;;-144.41;100.00
41684;BME280;27369;52.030;4.586;2023-06-04T07:23:21;42062.94;;;-144.41;100.00
41684;BME280;27369;52.030;4.586;2023-06-04T07:25:46;42201.16;;;-144.41;100.00
41684;BME280;27369;52.030;4.586;2023-06-04T07:28:12;42222.91;;;-144.41;100.00
41684;BME280;27369;52.030;4.586;2023-06-04T07:30:38;42422.34;;;-144.41;100.00
41684;BME280;27369;52.030;4.586;2023-06-04T07:33:04;42568.50;;;-144.41;100.00
41684;BME280;27369;52.030;4.586;2023-06-04T07:35:29;42831.16;;;-144.41;100.00
41684;BME280;27369;52.030;4.586;2023-06-04T07:37:54;42837.09;;;-144.41;100.00
41684;BME280;27369;52.030;4.586;2023-06-04T07:40:20;42858.81;;;-144.41;100.00
41684;BME280;27369;52.030;4.586;2023-06-04T07:42:46;42706.75;;;-144.41;100.00
41684;BME280;27369;52.030;4.586;2023-06-04T07:45:15;42843.00;;;-144.41;100.00
41684;BME280;27369;52.030;4.586;2023-06-04T07:51:00;42841.03;;;-144.41;100.00
41684;BME280;27369;52.030;4.586;2023-06-04T07:53:27;42918.06;;;-144.41;100.00
41684;BME280;27369;52.030;4.586;2023-06-04T07:55:52;42888.44;;;-144.41;100.00
41684;BME280;27369;52.030;4.586;2023-06-04T07:58:18;42732.41;;;-144.41;100.00
41684;BME280;27369;52.030;4.586;2023-06-04T08:00:44;42732.41;;;-144.41;100.00
41684;BME280;27369;52.030;4.586;2023-06-04T08:03:09;42643.53;;;-144.41;100.00
41684;BME280;27369;52.030;4.586;2023-06-04T08:05:35;42536.91;;;-144.41;100.00
41684;BME280;27369;52.030;4.586;2023-06-04T08:08:00;42315.72;;;-144.41;100.00
41684;BME280;27369;52.030;4.586;2023-06-04T08:10:27;41719.38;;;-144.41;100.00
41684;BME280;27369;52.030;4.586;2023-06-04T08:12:52;41373.84;;;-144.41;100.00
41684;BME280;27369;52.030;4.586;2023-06-04T08:15:17;41221.81;;;-144.41;100.00
41684;BME280;27369;52.030;4.586;2023-06-04T08:17:43;41123.13;;;-144.41;100.00
41684;BME280;27369;52.030;4.586;2023-06-04T08:20:09;41032.31;;;-144.41;100.00
41684;BME280;27369;52.030;4.586;2023-06-04T08:22:34;40746.06;;;-144.41;100.00
41684;BME280;27369;52.030;4.586;2023-06-04T08:25:00;40465.75;;;-144.41;100.00
41684;BME280;27369;52.030;4.586;2023-06-04T08:27:26;39585.50;;;-144.41;100.00
41684;BME280;27369;52.030;4.586;2023-06-04T08:29:51;39451.31;;;-144.41;100.00
41684;BME280;27369;52.030;4.586;2023-06-04T08:32:17;38963.94;;;-144.41;100.00
41684;BME280;27369;52.030;4.586;2023-06-04T08:34:43;39650.63;;;-144.41;100.00
41684;BME280;27369;52.030;4.586;2023-06-04T08:37:09;39917.06;;;-144.41;100.00
41684;BME280;27369;52.030;4.586;2023-06-04T08:39:34;39800.63;;;-144.41;100.00
41684;BME280;27369;52.030;4.586;2023-06-04T08:42:01;39749.31;;;-144.41;100.00
41684;BME280;27369;52.030;4.586;2023-06-04T08:44:29;39794.72;;;-144.41;100.00
41684;BME280;27369;52.030;4.586;2023-06-04T08:46:56;40189.44;;;-144.41;100.00
41684;BME280;27369;52.030;4.586;2023-06-04T08:49:25;39964.44;;;-144.41;100.00
41684;BME280;27369;52.030;4.586;2023-06-04T08:51:50;40309.84;;;-144.41;100.00
41684;BME280;27369;52.030;4.586;2023-06-04T08:54:16;40260.47;;;-144.41;100.00
41684;BME280;27369;52.030;4.586;2023-06-04T08:56:41;40544.72;;;-144.41;100.00
41684;BME280;27369;52.030;4.586;2023-06-04T08:59:10;40453.91;;;-144.41;100.00
41684;BME280;27369;52.030;4.586;2023-06-04T09:01:36;40390.75;;;-144.41;100.00
41684;BME280;27369;52.030;4.586;2023-06-04T09:04:07;40392.72;;;-144.41;100.00
41684;BME280;27369;52.030;4.586;2023-06-04T09:06:33;40607.88;;;-144.41;100.00
41684;BME280;27369;52.030;4.586;2023-06-04T09:09:02;40775.66;;;-144.41;100.00
41684;BME280;27369;52.030;4.586;2023-06-04T09:11:38;40702.63;;;-144.41;100.00
41684;BME280;27369;52.030;4.586;2023-06-04T09:14:07;40933.59;;;-144.41;100.00
41684;BME280;27369;52.030;4.586;2023-06-04T09:19:10;40911.88;;;-144.41;100.00
41684;BME280;27369;52.030;4.586;2023-06-04T09:21:49;41065.88;;;-144.41;100.00
41684;BME280;27369;52.030;4.586;2023-06-04T09:24:14;40990.84;;;-144.41;100.00
41684;BME280;27369;52.030;4.586;2023-06-04T09:26:40;40828.97;;;-144.41;100.00
41684;BME280;27369;52.030;4.586;2023-06-04T09:29:05;41310.66;;;-144.41;100.00
41684;BME280;27369;52.030;4.586;2023-06-04T09:31:31;41162.59;;;-144.41;100.00
41684;BME280;27369;52.030;4.586;2023-06-04T09:34:02;41006.63;;;-144.41;100.00
41684;BME280;27369;52.030;4.586;2023-06-04T09:36:35;41048.09;;;-144.41;100.00
41684;BME280;27369;52.030;4.586;2023-06-04T09:39:02;41367.91;;;-144.41;100.00
41684;BME280;27369;52.030;4.586;2023-06-04T09:41:29;41381.75;;;-144.41;100.00
41684;BME280;27369;52.030;4.586;2023-06-04T09:44:03;40009.81;;;-144.41;100.00
41684;BME280;27369;52.030;4.586;2023-06-04T09:46:29;38547.63;;;-144.41;100.00
41684;BME280;27369;52.030;4.586;2023-06-04T09:49:03;39956.53;;;-144.41;100.00
41684;BME280;27369;52.030;4.586;2023-06-04T09:51:29;39642.75;;;-144.41;100.00
41684;BME280;27369;52.030;4.586;2023-06-04T09:53:59;39232.28;;;-144.41;100.00
41684;BME280;27369;52.030;4.586;2023-06-04T09:56:25;39232.28;;;-144.41;100.00
41684;BME280;27369;52.030;4.586;2023-06-04T09:58:59;39299.38;;;-144.41;100.00
41684;BME280;27369;52.030;4.586;2023-06-04T10:01:29;39747.34;;;-144.41;100.00
41684;BME280;27369;52.030;4.586;2023-06-04T10:03:57;40678.94;;;-144.41;100.00
41684;BME280;27369;52.030;4.586;2023-06-04T10:06:32;40714.47;;;-144.41;100.00
41684;BME280;27369;52.030;4.586;2023-06-04T10:08:59;40761.84;;;-144.41;100.00
41684;BME280;27369;52.030;4.586;2023-06-04T10:11:34;40828.97;;;-144.41;100.00
41684;BME280;27369;52.030;4.586;2023-06-04T10:14:04;41332.38;;;-144.41;100.00
41684;BME280;27369;52.030;4.586;2023-06-04T10:16:33;41346.22;;;-144.41;100.00
41684;BME280;27369;52.030;4.586;2023-06-04T10:18:58;41371.88;;;-144.41;100.00
41684;BME280;27369;52.030;4.586;2023-06-04T10:21:25;41648.28;;;-144.41;100.00
41684;BME280;27369;52.030;4.586;2023-06-04T10:23:51;41748.97;;;-144.41;100.00
41684;BME280;27369;52.030;4.586;2023-06-04T10:26:17;41916.81;;;-144.41;100.00
41684;BME280;27369;52.030;4.586;2023-06-04T10:28:43;42141.94;;;-144.41;100.00
41684;BME280;27369;52.030;4.586;2023-06-04T10:31:09;41910.91;;;-144.41;100.00
41684;BME280;27369;52.030;4.586;2023-06-04T10:33:34;42043.19;;;-144.41;100.00
41684;BME280;27369;52.030;4.586;2023-06-04T10:36:10;41877.34;;;-144.41;100.00
41684;BME280;27369;52.030;4.586;2023-06-04T10:38:48;41934.59;;;-144.41;100.00
41684;BME280;27369;52.030;4.586;2023-06-04T10:41:17;42094.53;;;-144.41;100.00
41684;BME280;27369;52.030;4.586;2023-06-04T10:43:45;42256.47;;;-144.41;100.00
41684;BME280;27369;52.030;4.586;2023-06-04T10:46:14;42416.44;;;-144.41;100.00
41684;BME280;27369;52.030;4.586;2023-06-04T10:48:50;42242.66;;;-144.41;100.00
41684;BME280;27369;52.030;4.586;2023-06-04T10:51:17;42266.34;;;-144.41;100.00
41684;BME280;27369;52.030;4.586;2023-06-04T10:53:54;42047.16;;;-144.41;100.00
41684;BME280;27369;52.030;4.586;2023-06-04T10:56:26;42145.88;;;-144.41;100.00
41684;BME280;27369;52.030;4.586;2023-06-04T10:58:52;42230.78;;;-144.41;100.00
41684;BME280;27369;52.030;4.586;2023-06-04T11:01:24;42465.78;;;-144.41;100.00
41684;BME280;27369;52.030;4.586;2023-06-04T11:03:50;42600.09;;;-144.41;100.00
41684;BME280;27369;52.030;4.586;2023-06-04T11:06:15;42355.22;;;-144.41;100.00
41684;BME280;27369;52.030;4.586;2023-06-04T11:08:45;42335.47;;;-144.41;100.00
41684;BME280;27369;52.030;4.586;2023-06-04T11:11:11;42451.97;;;-144.41;100.00
41684;BME280;27369;52.030;4.586;2023-06-04T11:13:37;42424.31;;;-144.41;100.00
41684;BME280;27369;52.030;4.586;2023-06-04T11:16:02;42611.94;;;-144.41;100.00
41684;BME280;27369;52.030;4.586;2023-06-04T11:18:39;42475.66;;;-144.41;100.00
41684;BME280;27369;52.030;4.586;2023-06-04T11:21:04;42205.13;;;-144.41;100.00
41684;BME280;27369;52.030;4.586;2023-06-04T11:23:30;42600.09;;;-144.41;100.00
41684;BME280;27369;52.030;4.586;2023-06-04T11:25:55;42760.06;;;-144.41;100.00
41684;BME280;27369;52.030;4.586;2023-06-04T11:28:21;42821.28;;;-144.41;100.00
41684;BME280;27369;52.030;4.586;2023-06-04T11:31:02;42947.69;;;-144.41;100.00
41684;BME280;27369;52.030;4.586;2023-06-04T11:33:29;43082.00;;;-144.41;100.00
41684;BME280;27369;52.030;4.586;2023-06-04T11:35:54;43040.53;;;-144.41;100.00
41684;BME280;27369;52.030;4.586;2023-06-04T11:38:19;43137.31;;;-144.41;100.00
41684;BME280;27369;52.030;4.586;2023-06-04T11:40:55;43133.34;;;-144.41;100.00
41684;BME280;27369;52.030;4.586;2023-06-04T11:43:22;43322.97;;;-144.41;100.00
41684;BME280;27369;52.030;4.586;2023-06-04T11:45:48;43273.59;;;-144.41;100.00
41684;BME280;27369;52.030;4.586;2023-06-04T11:48:14;43322.97;;;-144.41;100.00
41684;BME280;27369;52.030;4.586;2023-06-04T11:50:40;43285.44;;;-144.41;100.00
41684;BME280;27369;52.030;4.586;2023-06-04T11:53:05;43352.63;;;-144.41;100.00
41684;BME280;27369;52.030;4.586;2023-06-04T11:55:31;43409.91;;;-144.41;100.00
41684;BME280;27369;52.030;4.586;2023-06-04T11:57:56;43380.28;;;-144.41;100.00
41684;BME280;27369;52.030;4.586;2023-06-04T12:00:22;43384.22;;;-144.41;100.00
41684;BME280;27369;52.030;4.586;2023-06-04T12:02:54;43392.13;;;-144.41;100.00
41684;BME280;27369;52.030;4.586;2023-06-04T12:05:28;43461.25;;;-144.41;100.00
41684;BME280;27369;52.030;4.586;2023-06-04T12:08:07;43486.94;;;-144.41;100.00
41684;BME280;27369;52.030;4.586;2023-06-04T12:10:41;43496.81;;;-144.41;100.00
41684;BME280;27369;52.030;4.586;2023-06-04T12:13:07;43403.97;;;-144.41;100.00
41684;BME280;27369;52.030;4.586;2023-06-04T12:15:33;43372.38;;;-144.41;100.00
41684;BME280;27369;52.030;4.586;2023-06-04T12:17:59;43419.78;;;-144.41;100.00
41684;BME280;27369;52.030;4.586;2023-06-04T12:20:35;43603.50;;;-144.41;100.00
41684;BME280;27369;52.030;4.586;2023-06-04T12:23:01;43565.94;;;-144.41;100.00
41684;BME280;27369;52.030;4.586;2023-06-04T12:25:27;43617.31;;;-144.41;100.00
41684;BME280;27369;52.030;4.586;2023-06-04T12:27:53;43597.56;;;-144.41;100.00
41684;BME280;27369;52.030;4.586;2023-06-04T12:30:18;43583.72;;;-144.41;100.00
41684;BME280;27369;52.030;4.586;2023-06-04T12:32:44;43573.84;;;-144.41;100.00
41684;BME280;27369;52.030;4.586;2023-06-04T12:35:10;43607.44;;;-144.41;100.00
41684;BME280;27369;52.030;4.586;2023-06-04T12:37:35;43714.13;;;-144.41;100.00